createdAt,value
2019-05-01T00:02:25.170Z,26.40
2019-05-01T00:05:18.120Z,25.37
2019-05-01T00:07:45.875Z,25.43
2019-05-01T00:10:13.967Z,25.32
2019-05-01T00:12:42.318Z,25.95
2019-05-01T00:15:11.333Z,26.27
2019-05-01T00:17:39.402Z,25.95
2019-05-01T00:20:06.692Z,25.05
2019-05-01T00:22:34.221Z,26.00
2019-05-01T00:25:01.546Z,26.35
2019-05-01T00:27:29.158Z,26.95
2019-05-01T00:29:56.336Z,27.95
2019-05-01T00:32:23.458Z,26.70
2019-05-01T00:34:51.038Z,26.02
2019-05-01T00:37:18.916Z,26.57
2019-05-01T00:39:46.782Z,25.27
2019-05-01T00:42:13.995Z,26.35
2019-05-01T00:44:41.479Z,26.60
2019-05-01T00:47:08.714Z,25.97
2019-05-01T00:49:36.423Z,26.52
2019-05-01T00:52:03.988Z,26.70
2019-05-01T00:54:33.810Z,26.42
2019-05-01T00:57:08.967Z,27.27
2019-05-01T00:59:56.062Z,27.17
2019-05-01T01:02:29.012Z,26.60
2019-05-01T01:04:56.780Z,27.85
2019-05-01T01:07:24.580Z,26.52
2019-05-01T01:09:52.126Z,25.32
2019-05-01T01:12:19.895Z,28.57
2019-05-01T01:14:47.119Z,27.65
2019-05-01T01:17:14.631Z,26.97
2019-05-01T01:19:42.199Z,26.52
2019-05-01T01:22:09.534Z,27.37
2019-05-01T01:24:37.429Z,26.57
2019-05-01T01:27:04.886Z,27.62
2019-05-01T01:29:32.153Z,27.95
2019-05-01T01:31:59.667Z,28.25
2019-05-01T01:34:26.999Z,28.42
2019-05-01T01:36:54.558Z,28.87
2019-05-01T01:39:22.087Z,26.57
2019-05-01T01:41:49.598Z,26.70
2019-05-01T01:44:23.311Z,28.47
2019-05-01T01:46:52.086Z,28.15
2019-05-01T01:49:19.482Z,27.80
2019-05-01T01:51:47.151Z,28.15
2019-05-01T01:54:14.691Z,29.05
2019-05-01T01:56:42.284Z,28.00
2019-05-01T01:59:09.902Z,28.42
2019-05-01T02:01:49.933Z,27.87
2019-05-01T02:04:33.474Z,26.70
2019-05-01T02:07:00.667Z,27.98
2019-05-01T02:09:28.068Z,29.32
2019-05-01T02:11:55.266Z,29.00
2019-05-01T02:14:23.107Z,27.87
2019-05-01T02:16:50.566Z,28.40
2019-05-01T02:19:18.491Z,27.65
2019-05-01T02:21:46.207Z,27.98
2019-05-01T02:24:13.441Z,27.70
2019-05-01T02:26:44.826Z,27.70
2019-05-01T02:29:18.298Z,29.45
2019-05-01T02:31:47.544Z,28.27
2019-05-01T02:34:16.488Z,28.60
2019-05-01T02:36:45.368Z,28.27
2019-05-01T02:39:13.992Z,27.65
2019-05-01T02:41:42.492Z,29.27
2019-05-01T02:44:18.864Z,29.37
2019-05-01T02:46:49.603Z,28.92
2019-05-01T02:49:24.613Z,28.65
2019-05-01T02:51:53.327Z,26.75
2019-05-01T02:54:21.151Z,28.42
2019-05-01T02:57:01.867Z,28.70
2019-05-01T02:59:30.649Z,26.65
2019-05-01T03:02:00.555Z,28.80
2019-05-01T03:04:28.437Z,30.52
2019-05-01T03:06:56.399Z,28.05
2019-05-01T03:09:23.812Z,28.80
2019-05-01T03:11:53.614Z,28.62
2019-05-01T03:14:24.431Z,29.87
2019-05-01T03:16:55.575Z,29.63
2019-05-01T03:19:41.673Z,28.77
2019-05-01T03:22:19.159Z,27.98
2019-05-01T03:24:47.114Z,27.93
2019-05-01T03:27:15.394Z,27.20
2019-05-01T03:29:42.959Z,28.45
2019-05-01T03:32:18.126Z,28.70
2019-05-01T03:34:40.373Z,28.52
2019-05-01T03:37:08.639Z,28.92
2019-05-01T03:39:35.901Z,29.52
2019-05-01T03:42:05.327Z,27.25
2019-05-01T03:44:32.863Z,27.50
2019-05-01T03:47:00.584Z,29.48
2019-05-01T03:49:28.389Z,29.90
2019-05-01T03:51:57.171Z,29.42
2019-05-01T03:54:24.748Z,32.50
2019-05-01T03:56:52.393Z,29.05
2019-05-01T03:59:20.079Z,31.57
2019-05-01T04:02:10.464Z,30.30
2019-05-01T04:04:38.132Z,29.92
2019-05-01T04:07:05.525Z,30.88
2019-05-01T04:09:33.313Z,31.07
2019-05-01T04:12:01.659Z,31.57
2019-05-01T04:14:29.336Z,29.23
2019-05-01T04:17:08.480Z,30.32
2019-05-01T04:19:35.892Z,32.80
2019-05-01T04:22:09.844Z,31.73
2019-05-01T04:24:37.992Z,30.62
2019-05-01T04:27:07.201Z,32.85
2019-05-01T04:29:44.196Z,29.30
2019-05-01T04:32:17.146Z,32.50
2019-05-01T04:35:04.260Z,34.27
2019-05-01T04:37:32.035Z,35.88
2019-05-01T04:39:59.600Z,36.93
2019-05-01T04:42:27.000Z,36.55
2019-05-01T04:44:54.260Z,37.03
2019-05-01T04:47:21.752Z,39.27
2019-05-01T04:49:49.312Z,35.48
2019-05-01T04:52:16.541Z,36.17
2019-05-01T04:54:44.540Z,37.48
2019-05-01T04:57:12.247Z,36.93
2019-05-01T04:59:40.007Z,36.53
2019-05-01T05:02:10.239Z,35.63
2019-05-01T05:04:38.515Z,35.83
2019-05-01T05:07:06.253Z,37.40
2019-05-01T05:09:41.002Z,36.03
2019-05-01T05:12:12.706Z,35.98
2019-05-01T05:14:42.587Z,39.90
2019-05-01T05:17:14.653Z,39.10
2019-05-01T05:19:42.144Z,37.53
2019-05-01T05:22:09.578Z,36.75
2019-05-01T05:24:37.142Z,41.75
2019-05-01T05:27:05.295Z,42.78
2019-05-01T05:29:32.697Z,40.90
2019-05-01T05:32:02.487Z,41.42
2019-05-01T05:34:31.491Z,42.58
2019-05-01T05:37:02.924Z,43.20
2019-05-01T05:39:35.971Z,41.58
2019-05-01T05:42:04.317Z,44.25
2019-05-01T05:44:32.086Z,46.10
2019-05-01T05:46:59.656Z,47.17
2019-05-01T05:49:27.743Z,45.40
2019-05-01T05:52:16.742Z,44.42
2019-05-01T05:55:02.582Z,49.10
2019-05-01T05:57:52.123Z,46.60
2019-05-01T06:00:29.839Z,47.03
2019-05-01T06:03:08.762Z,48.78
2019-05-01T06:05:53.632Z,46.98
2019-05-01T06:08:25.838Z,51.55
2019-05-01T06:11:09.500Z,50.67
2019-05-01T06:14:12.270Z,49.53
2019-05-01T06:17:53.258Z,49.58
2019-05-01T06:20:45.999Z,46.13
2019-05-01T06:23:52.822Z,49.23
2019-05-01T06:26:45.177Z,51.83
2019-05-01T06:29:13.131Z,48.98
2019-05-01T06:31:40.757Z,50.98
2019-05-01T06:34:07.938Z,53.68
2019-05-01T06:36:35.337Z,52.58
2019-05-01T06:39:06.922Z,51.05
2019-05-01T06:41:42.735Z,52.38
2019-05-01T06:44:19.870Z,51.80
2019-05-01T06:47:03.163Z,52.00
2019-05-01T06:49:47.480Z,52.70
2019-05-01T06:52:18.742Z,52.58
2019-05-01T06:54:47.745Z,51.40
2019-05-01T06:57:16.570Z,53.92
2019-05-01T06:59:44.434Z,54.18
2019-05-01T07:02:15.974Z,50.73
2019-05-01T07:04:45.567Z,53.73
2019-05-01T07:07:25.058Z,51.42
2019-05-01T07:09:48.783Z,51.77
2019-05-01T07:12:18.347Z,51.75
2019-05-01T07:14:47.158Z,51.73
2019-05-01T07:17:15.155Z,51.92
2019-05-01T07:20:01.348Z,53.58
2019-05-01T07:22:28.973Z,53.23
2019-05-01T07:24:59.054Z,54.42
2019-05-01T07:27:25.563Z,51.48
2019-05-01T07:29:55.973Z,53.15
2019-05-01T07:32:23.654Z,51.42
2019-05-01T07:34:51.521Z,50.43
2019-05-01T07:37:20.919Z,53.50
2019-05-01T07:39:49.942Z,49.70
2019-05-01T07:42:28.976Z,54.50
2019-05-01T07:45:03.883Z,52.25
2019-05-01T07:47:41.888Z,54.90
2019-05-01T07:50:11.435Z,54.50
2019-05-01T07:52:39.583Z,51.63
2019-05-01T07:55:08.165Z,51.53
2019-05-01T07:57:39.872Z,52.53
2019-05-01T08:00:09.036Z,53.28
2019-05-01T08:02:36.229Z,52.35
2019-05-01T08:05:04.905Z,49.15
2019-05-01T08:07:33.614Z,51.65
2019-05-01T08:10:01.039Z,51.42
2019-05-01T08:12:28.411Z,51.13
2019-05-01T08:14:55.790Z,51.08
2019-05-01T08:17:24.956Z,53.98
2019-05-01T08:19:59.868Z,52.90
2019-05-01T08:22:32.004Z,52.75
2019-05-01T08:25:00.014Z,49.27
2019-05-01T08:27:45.994Z,51.50
2019-05-01T08:30:33.423Z,48.50
2019-05-01T08:33:20.120Z,49.10
2019-05-01T08:35:47.751Z,48.00
2019-05-01T08:38:15.450Z,49.50
2019-05-01T08:40:42.554Z,47.03
2019-05-01T08:43:09.631Z,47.33
2019-05-01T08:46:03.040Z,46.05
2019-05-01T08:48:38.302Z,46.55
2019-05-01T08:51:05.803Z,44.48
2019-05-01T08:53:33.062Z,45.33
2019-05-01T08:56:00.995Z,46.18
2019-05-01T08:58:28.237Z,48.50
2019-05-01T09:00:56.090Z,48.60
2019-05-01T09:03:23.336Z,50.00
2019-05-01T09:05:52.145Z,48.25
2019-05-01T09:08:20.038Z,48.05
2019-05-01T09:10:49.579Z,48.85
2019-05-01T09:13:18.968Z,46.58
2019-05-01T09:15:48.393Z,47.35
2019-05-01T09:18:18.882Z,44.83
2019-05-01T09:20:48.831Z,47.17
2019-05-01T09:23:16.229Z,45.78
2019-05-01T09:25:56.056Z,46.35
2019-05-01T09:31:51.134Z,47.62
2019-05-01T09:34:20.918Z,46.08
2019-05-01T09:36:48.168Z,45.88
2019-05-01T09:39:16.935Z,47.23
2019-05-01T09:41:47.385Z,47.17
2019-05-01T09:44:14.315Z,43.92
2019-05-01T09:46:41.465Z,44.58
2019-05-01T09:49:09.110Z,46.42
2019-05-01T09:51:59.623Z,45.48
2019-05-01T09:54:36.965Z,48.08
2019-05-01T09:57:04.834Z,50.33
2019-05-01T09:59:32.755Z,51.53
2019-05-01T10:02:02.986Z,47.03
2019-05-01T10:04:30.311Z,50.25
2019-05-01T10:06:58.747Z,52.88
2019-05-01T10:09:26.939Z,50.58
2019-05-01T10:11:54.495Z,54.48
2019-05-01T10:14:22.195Z,50.38
2019-05-01T10:16:49.300Z,53.48
2019-05-01T10:19:17.211Z,52.62
2019-05-01T10:21:45.131Z,54.42
2019-05-01T10:24:12.665Z,51.13
2019-05-01T10:26:41.830Z,50.58
2019-05-01T10:29:45.670Z,53.13
2019-05-01T10:32:23.189Z,53.15
2019-05-01T10:34:57.941Z,54.85
2019-05-01T10:37:28.238Z,52.15
2019-05-01T10:39:55.428Z,53.85
2019-05-01T10:42:23.489Z,52.67
2019-05-01T10:44:50.703Z,54.23
2019-05-01T10:47:18.279Z,52.62
2019-05-01T10:49:45.627Z,52.40
2019-05-01T10:52:14.335Z,52.98
2019-05-01T10:54:42.110Z,55.00
2019-05-01T10:57:09.734Z,55.63
2019-05-01T10:59:37.432Z,52.40
2019-05-01T11:02:06.876Z,54.83
2019-05-01T11:04:34.395Z,54.83
2019-05-01T11:07:01.631Z,51.25
2019-05-01T11:09:29.240Z,52.98
2019-05-01T11:11:56.448Z,53.50
2019-05-01T11:14:24.370Z,54.50
2019-05-01T11:16:51.690Z,52.10
2019-05-01T11:19:18.901Z,53.78
2019-05-01T11:21:46.074Z,55.73
2019-05-01T11:24:13.542Z,55.33
2019-05-01T11:26:41.061Z,53.38
2019-05-01T11:29:09.242Z,53.90
2019-05-01T11:31:53.016Z,54.42
2019-05-01T11:34:48.795Z,52.83
2019-05-01T11:37:38.497Z,55.85
2019-05-01T11:40:10.798Z,53.98
2019-05-01T11:42:38.363Z,52.03
2019-05-01T11:45:07.695Z,51.85
2019-05-01T11:47:35.249Z,50.10
2019-05-01T11:50:03.387Z,53.95
2019-05-01T11:52:32.048Z,50.65
2019-05-01T11:54:59.899Z,55.00
2019-05-01T11:57:27.875Z,51.95
2019-05-01T11:59:55.446Z,53.48
2019-05-01T12:02:22.800Z,50.83
2019-05-01T12:04:50.647Z,53.35
2019-05-01T12:07:18.239Z,52.73
2019-05-01T12:09:45.767Z,51.10
2019-05-01T12:12:15.409Z,51.35
2019-05-01T12:14:42.937Z,53.50
2019-05-01T12:17:30.895Z,52.33
2019-05-01T12:19:58.094Z,50.17
2019-05-01T12:22:25.615Z,49.42
2019-05-01T12:24:52.707Z,53.50
2019-05-01T12:27:20.650Z,47.43
2019-05-01T12:29:48.184Z,48.35
2019-05-01T12:32:15.772Z,48.90
2019-05-01T12:34:43.748Z,49.75
2019-05-01T12:37:21.803Z,49.40
2019-05-01T12:39:49.618Z,51.73
2019-05-01T12:42:18.818Z,51.75
2019-05-01T12:44:46.065Z,49.50
2019-05-01T12:47:42.610Z,48.50
2019-05-01T12:50:10.367Z,48.65
2019-05-01T12:52:57.902Z,52.30
2019-05-01T12:55:43.575Z,50.30
2019-05-01T12:58:11.163Z,46.80
2019-05-01T13:00:46.916Z,51.98
2019-05-01T13:03:14.661Z,48.33
2019-05-01T13:05:42.291Z,49.48
2019-05-01T13:08:09.746Z,44.75
2019-05-01T13:10:37.462Z,48.28
2019-05-01T13:13:04.691Z,48.05
2019-05-01T13:15:32.895Z,49.53
2019-05-01T13:18:00.442Z,49.77
2019-05-01T13:20:27.742Z,48.00
2019-05-01T13:22:54.934Z,47.50
2019-05-01T13:25:22.849Z,48.10
2019-05-01T13:27:59.620Z,48.65
2019-05-01T13:30:38.542Z,49.35
2019-05-01T13:33:06.393Z,46.80
2019-05-01T13:35:33.604Z,49.27
2019-05-01T13:38:01.438Z,46.75
2019-05-01T13:40:29.512Z,48.28
2019-05-01T13:42:57.090Z,49.80
2019-05-01T13:45:24.649Z,48.52
2019-05-01T13:47:54.421Z,47.65
2019-05-01T13:50:22.657Z,48.02
2019-05-01T13:52:49.871Z,46.23
2019-05-01T13:55:17.384Z,46.37
2019-05-01T13:57:45.331Z,47.08
2019-05-01T14:00:12.986Z,45.38
2019-05-01T14:02:40.204Z,45.73
2019-05-01T14:05:08.088Z,44.80
2019-05-01T14:07:35.333Z,45.38
2019-05-01T14:10:02.731Z,44.53
2019-05-01T14:12:29.950Z,44.95
2019-05-01T14:14:57.750Z,43.78
2019-05-01T14:17:24.987Z,41.33
2019-05-01T14:20:17.620Z,42.55
2019-05-01T14:22:57.488Z,42.13
2019-05-01T14:25:25.374Z,41.10
2019-05-01T14:27:53.256Z,43.10
2019-05-01T14:30:20.667Z,43.92
2019-05-01T14:32:48.298Z,41.75
2019-05-01T14:35:15.731Z,41.88
2019-05-01T14:37:43.715Z,42.50
2019-05-01T14:40:11.115Z,42.17
2019-05-01T14:42:38.681Z,43.33
2019-05-01T14:45:08.222Z,42.58
2019-05-01T14:47:35.822Z,43.85
2019-05-01T14:50:03.730Z,42.23
2019-05-01T14:52:31.047Z,42.30
2019-05-01T14:54:58.598Z,39.42
2019-05-01T14:57:26.007Z,38.45
2019-05-01T14:59:53.258Z,38.02
2019-05-01T15:02:20.518Z,38.17
2019-05-01T15:04:48.581Z,40.98
2019-05-01T15:07:16.317Z,39.98
2019-05-01T15:09:45.997Z,36.48
2019-05-01T15:12:16.267Z,38.55
2019-05-01T15:15:16.337Z,38.75
2019-05-01T15:17:51.952Z,37.70
2019-05-01T15:20:20.315Z,35.70
2019-05-01T15:22:48.024Z,38.45
2019-05-01T15:25:15.386Z,40.00
2019-05-01T15:27:42.776Z,37.75
2019-05-01T15:30:13.683Z,36.77
2019-05-01T15:32:41.294Z,36.75
2019-05-01T15:35:08.813Z,36.48
2019-05-01T15:37:36.417Z,34.67
2019-05-01T15:40:13.127Z,34.40
2019-05-01T15:42:50.209Z,33.20
2019-05-01T15:45:17.558Z,34.55
2019-05-01T15:47:44.720Z,35.98
2019-05-01T15:50:12.461Z,35.55
2019-05-01T15:52:39.904Z,36.80
2019-05-01T15:55:07.681Z,34.75
2019-05-01T15:57:35.543Z,34.85
2019-05-01T16:00:05.929Z,37.23
2019-05-01T16:02:33.767Z,36.60
2019-05-01T16:05:01.654Z,34.70
2019-05-01T16:07:28.834Z,35.08
2019-05-01T16:09:56.193Z,37.08
2019-05-01T16:12:34.858Z,36.48
2019-05-01T16:15:04.521Z,35.50
2019-05-01T16:17:31.702Z,34.58
2019-05-01T16:19:59.271Z,34.63
2019-05-01T16:22:27.176Z,37.35
2019-05-01T16:24:54.522Z,37.70
2019-05-01T16:27:22.178Z,35.45
2019-05-01T16:29:49.754Z,36.30
2019-05-01T16:32:17.395Z,39.08
2019-05-01T16:34:45.307Z,34.48
2019-05-01T16:37:12.879Z,39.15
2019-05-01T16:40:00.611Z,38.75
2019-05-01T16:42:45.646Z,37.17
2019-05-01T16:45:13.455Z,37.40
2019-05-01T16:47:41.121Z,36.75
2019-05-01T16:50:09.082Z,35.38
2019-05-01T16:52:37.250Z,37.17
2019-05-01T16:55:05.890Z,36.58
2019-05-01T16:57:33.586Z,36.08
2019-05-01T17:00:01.576Z,37.28
2019-05-01T17:02:48.406Z,39.60
2019-05-01T17:05:44.259Z,38.78
2019-05-01T17:08:18.754Z,37.67
2019-05-01T17:10:47.815Z,38.38
2019-05-01T17:13:15.060Z,36.83
2019-05-01T17:15:44.707Z,36.30
2019-05-01T17:18:13.529Z,36.77
2019-05-01T17:20:40.763Z,38.08
2019-05-01T17:23:07.979Z,36.30
2019-05-01T17:25:35.765Z,37.13
2019-05-01T17:28:08.133Z,35.38
2019-05-01T17:30:45.398Z,36.75
2019-05-01T17:33:19.605Z,34.63
2019-05-01T17:35:43.204Z,34.73
2019-05-01T17:38:11.379Z,33.02
2019-05-01T17:40:38.562Z,34.95
2019-05-01T17:43:08.026Z,32.55
2019-05-01T17:45:36.749Z,34.15
2019-05-01T17:48:04.511Z,34.05
2019-05-01T17:50:32.134Z,33.73
2019-05-01T17:53:00.347Z,34.27
2019-05-01T17:55:28.187Z,31.68
2019-05-01T17:57:55.523Z,33.20
2019-05-01T18:00:34.515Z,34.13
2019-05-01T18:03:08.443Z,33.20
2019-05-01T18:05:45.946Z,31.10
2019-05-01T18:08:13.360Z,31.12
2019-05-01T18:10:42.689Z,31.02
2019-05-01T18:13:10.467Z,31.02
2019-05-01T18:15:38.510Z,33.20
2019-05-01T18:18:05.971Z,33.55
2019-05-01T18:20:33.239Z,32.00
2019-05-01T18:23:20.975Z,30.48
2019-05-01T18:25:52.735Z,33.20
2019-05-01T18:28:39.609Z,30.95
2019-05-01T18:31:10.599Z,32.93
2019-05-01T18:33:38.242Z,33.78
2019-05-01T18:36:06.723Z,32.70
2019-05-01T18:38:42.985Z,32.67
2019-05-01T18:41:18.768Z,33.15
2019-05-01T18:43:48.125Z,33.63
2019-05-01T18:46:16.330Z,31.23
2019-05-01T18:48:43.554Z,34.05
2019-05-01T18:51:11.456Z,35.00
2019-05-01T18:53:39.126Z,35.83
2019-05-01T18:56:06.934Z,34.35
2019-05-01T18:58:34.526Z,32.90
2019-05-01T19:01:04.234Z,40.05
2019-05-01T19:03:31.834Z,43.00
2019-05-01T19:05:59.677Z,41.08
2019-05-01T19:08:26.942Z,36.45
2019-05-01T19:10:54.330Z,35.38
2019-05-01T19:13:21.656Z,50.03
2019-05-01T19:15:48.840Z,48.20
2019-05-01T19:18:16.628Z,40.20
2019-05-01T19:20:44.114Z,39.18
2019-05-01T19:23:12.138Z,36.73
2019-05-01T19:25:39.725Z,36.95
2019-05-01T19:28:09.116Z,39.10
2019-05-01T19:30:36.326Z,37.08
2019-05-01T19:33:03.851Z,38.02
2019-05-01T19:35:34.029Z,35.88
2019-05-01T19:38:00.774Z,34.60
2019-05-01T19:40:30.677Z,35.45
2019-05-01T19:42:58.363Z,35.83
2019-05-01T19:45:27.332Z,35.38
2019-05-01T19:47:55.606Z,33.60
2019-05-01T19:50:22.861Z,36.58
2019-05-01T19:52:50.168Z,35.58
2019-05-01T19:55:17.386Z,35.40
2019-05-01T19:57:45.310Z,33.78
2019-05-01T20:00:14.313Z,37.25
2019-05-01T20:02:43.642Z,36.90
2019-05-01T20:05:12.186Z,36.10
2019-05-01T20:07:39.646Z,37.67
2019-05-01T20:10:07.529Z,37.78
2019-05-01T20:12:34.827Z,36.48
2019-05-01T20:15:02.903Z,36.95
2019-05-01T20:17:30.162Z,39.75
2019-05-01T20:19:57.710Z,37.65
2019-05-01T20:22:24.971Z,38.55
2019-05-01T20:24:52.487Z,40.10
2019-05-01T20:27:19.713Z,39.08
2019-05-01T20:29:46.971Z,39.53
2019-05-01T20:32:14.893Z,37.95
2019-05-01T20:34:42.476Z,37.15
2019-05-01T20:37:10.346Z,38.73
2019-05-01T20:39:37.582Z,37.78
2019-05-01T20:42:04.991Z,36.45
2019-05-01T20:44:32.504Z,37.80
2019-05-01T20:47:02.579Z,39.10
2019-05-01T20:49:30.818Z,36.77
2019-05-01T20:51:58.181Z,36.05
2019-05-01T20:54:25.353Z,36.90
2019-05-01T20:56:59.983Z,38.15
2019-05-01T20:59:27.299Z,38.60
2019-05-01T21:01:59.691Z,38.65
2019-05-01T21:04:44.854Z,37.90
2019-05-01T21:07:29.321Z,40.17
2019-05-01T21:09:57.886Z,37.60
2019-05-01T21:12:25.650Z,39.03
2019-05-01T21:14:53.530Z,37.65
2019-05-01T21:17:21.035Z,37.08
2019-05-01T21:19:48.559Z,38.38
2019-05-01T21:22:16.015Z,37.10
2019-05-01T21:24:44.513Z,37.60
2019-05-01T21:27:13.337Z,36.40
2019-05-01T21:29:41.068Z,38.48
2019-05-01T21:32:08.838Z,36.50
2019-05-01T21:34:35.968Z,39.03
2019-05-01T21:37:03.181Z,37.25
2019-05-01T21:39:30.910Z,36.65
2019-05-01T21:41:58.693Z,38.33
2019-05-01T21:44:26.242Z,37.00
2019-05-01T21:46:54.125Z,37.30
2019-05-01T21:49:22.938Z,35.98
2019-05-01T21:51:52.847Z,35.70
2019-05-01T21:54:21.851Z,37.48
2019-05-01T21:56:49.490Z,35.90
2019-05-01T21:59:16.997Z,36.53
2019-05-01T22:01:44.926Z,36.28
2019-05-01T22:04:13.026Z,39.33
2019-05-01T22:06:40.562Z,38.48
2019-05-01T22:09:15.292Z,38.10
2019-05-01T22:11:43.851Z,37.83
2019-05-01T22:14:15.456Z,36.40
2019-05-01T22:16:43.312Z,37.48
2019-05-01T22:19:15.359Z,34.55
2019-05-01T22:22:01.364Z,37.73
2019-05-01T22:24:46.091Z,34.75
2019-05-01T22:27:18.531Z,34.40
2019-05-01T22:29:52.718Z,36.00
2019-05-01T22:32:32.524Z,37.95
2019-05-01T22:35:27.119Z,35.52
2019-05-01T22:37:54.826Z,36.40
2019-05-01T22:40:40.302Z,36.58
2019-05-01T22:43:07.857Z,35.30
2019-05-01T22:45:35.213Z,36.28
2019-05-01T22:48:02.778Z,37.50
2019-05-01T22:50:30.181Z,36.85
2019-05-01T22:52:57.853Z,37.40
2019-05-01T22:55:26.639Z,38.05
2019-05-01T22:57:54.291Z,37.55
2019-05-01T23:00:38.086Z,37.88
2019-05-01T23:03:08.022Z,36.05
2019-05-01T23:05:35.633Z,38.35
2019-05-01T23:08:03.886Z,35.63
2019-05-01T23:10:31.991Z,36.60
2019-05-01T23:12:59.263Z,36.85
2019-05-01T23:15:28.270Z,39.00
2019-05-01T23:17:55.706Z,35.52
2019-05-01T23:20:23.927Z,37.38
2019-05-01T23:22:51.577Z,37.10
2019-05-01T23:25:19.573Z,35.68
2019-05-01T23:27:47.118Z,36.30
2019-05-01T23:30:16.492Z,36.77
2019-05-01T23:32:44.120Z,36.17
2019-05-01T23:35:11.693Z,36.53
2019-05-01T23:37:39.543Z,36.42
2019-05-01T23:40:10.893Z,38.23
2019-05-01T23:42:36.958Z,37.83
2019-05-01T23:45:04.844Z,35.83
2019-05-01T23:47:32.188Z,37.75
2019-05-01T23:49:59.894Z,37.90
2019-05-01T23:52:27.574Z,39.42
2019-05-01T23:54:55.566Z,36.20
2019-05-01T23:57:23.435Z,37.93
2019-05-01T23:59:51.308Z,37.38
